Time;durP1;ratioP1;P1;durP2;ratioP2;P2;SDS_P1;SDS_P2;PMS_P1;PMS_P2;Temp;Humidity;BMP_temperature;BMP_pressure;BME280_temperature;BME280_humidity;BME280_pressure;Samples;Min_cycle;Max_cycle;Signal;HPM_P1;HPM_P2
2023/06/06 00:00:28;;;;;;;;;;;;;;;;;;5283312;28;19905;-71
2023/06/06 00:02:59;;;;;;;;;;;;;;;;;;5283152;28;19909;-71
2023/06/06 00:05:31;;;;;;;;;;;;;;;;;;5283365;28;20347;-71
2023/06/06 00:08:02;;;;;;;;;;;;;;;;;;5282776;28;20351;-72
2023/06/06 00:10:33;;;;;;;;;;;;;;;;;;5283770;28;19911;-71
2023/06/06 00:13:04;;;;;;;;;;;;;;;;;;5283245;28;19904;-71
2023/06/06 00:15:36;;;;;;;;;;;;;;;;;;5284125;28;19905;-71
2023/06/06 00:18:07;;;;;;;;;;;;;;;;;;5283674;28;19904;-71
2023/06/06 00:20:38;;;;;;;;;;;;;;;;;;5282846;28;20287;-71
2023/06/06 00:23:10;;;;;;;;;;;;;;;;;;5283353;28;20003;-71
2023/06/06 00:25:41;;;;;;;;;;;;;;;;;;5282643;28;19912;-71
2023/06/06 00:28:12;;;;;;;;;;;;;;;;;;5282481;28;19905;-71
2023/06/06 00:30:44;;;;;;;;;;;;;;;;;;5282303;28;20420;-71
2023/06/06 00:33:15;;;;;;;;;;;;;;;;;;5283417;28;19991;-71
2023/06/06 00:35:46;;;;;;;;;;;;;;;;;;5281863;28;19932;-71
2023/06/06 00:38:17;;;;;;;;;;;;;;;;;;5283050;28;19931;-71
2023/06/06 00:40:48;;;;;;;;;;;;;;;;;;5282565;28;20000;-71
2023/06/06 00:43:19;;;;;;;;;;;;;;;;;;5282194;28;19950;-71
2023/06/06 00:45:50;;;;;;;;;;;;;;;;;;5282370;28;19916;-71
2023/06/06 00:48:22;;;;;;;;;;;;;;;;;;5282003;28;19911;-71
2023/06/06 00:50:54;;;;;;;;;;;;;;;;;;5282135;28;20274;-71
2023/06/06 00:53:25;;;;;;;;;;;;;;;;;;5282665;28;19905;-71
2023/06/06 00:55:57;;;;;;;;;;;;;;;;;;5281645;28;19943;-71
2023/06/06 00:58:28;;;;;;;;;;;;;;;;;;5282502;28;19912;-71
2023/06/06 01:01:01;;;;;;;;;;;;;;;;;;5282452;28;19954;-71
2023/06/06 01:03:32;;;;;;;;;;;;;;;;;;5281525;28;19943;-71
2023/06/06 01:06:03;;;;;;;;;;;;;;;;;;5282288;28;20383;-71
2023/06/06 01:08:35;;;;;;;;;;;;;;;;;;5282404;28;19905;-72
2023/06/06 01:11:06;;;;;;;;;;;;;;;;;;5281467;28;19911;-72
2023/06/06 01:13:38;;;;;;;;;;;;;;;;;;5282235;28;19908;-71
2023/06/06 01:16:09;;;;;;;;;;;;;;;;;;5282168;28;19946;-72
2023/06/06 01:18:41;;;;;;;;;;;;;;;;;;5281226;28;20428;-71
2023/06/06 01:21:12;;;;;;;;;;;;;;;;;;5282561;28;19950;-71
2023/06/06 01:23:46;;;;;;;;;;;;;;;;;;5280847;28;19959;-71
2023/06/06 01:26:17;;;;;;;;;;;;;;;;;;5282386;28;19904;-71
2023/06/06 01:28:48;;;;;;;;;;;;;;;;;;5282028;28;19904;-71
2023/06/06 01:31:19;;;;;;;;;;;;;;;;;;5281725;28;20309;-71
2023/06/06 01:33:50;;;;;;;;;;;;;;;;;;5281703;28;19927;-72
2023/06/06 01:36:22;;;;;;;;;;;;;;;;;;5282230;28;19931;-71
2023/06/06 01:38:53;;;;;;;;;;;;;;;;;;5280763;28;19950;-71
2023/06/06 01:41:24;;;;;;;;;;;;;;;;;;5281139;28;19905;-72
2023/06/06 01:43:55;;;;;;;;;;;;;;;;;;5281974;28;19916;-71
2023/06/06 01:46:26;;;;;;;;;;;;;;;;;;5281211;28;20394;-72
2023/06/06 01:48:57;;;;;;;;;;;;;;;;;;5281780;28;19904;-71
2023/06/06 01:51:28;;;;;;;;;;;;;;;;;;5281031;28;19959;-71
2023/06/06 01:54:00;;;;;;;;;;;;;;;;;;5281587;28;19904;-71
2023/06/06 01:56:33;;;;;;;;;;;;;;;;;;5281646;28;20292;-71
2023/06/06 01:59:04;;;;;;;;;;;;;;;;;;5281069;28;19904;-71
2023/06/06 02:01:35;;;;;;;;;;;;;;;;;;5281766;28;20318;-71
2023/06/06 02:04:06;;;;;;;;;;;;;;;;;;5281487;28;20014;-71
2023/06/06 02:06:38;;;;;;;;;;;;;;;;;;5280985;28;20500;-71
2023/06/06 02:09:10;;;;;;;;;;;;;;;;;;5281649;28;19904;-71
2023/06/06 02:11:41;;;;;;;;;;;;;;;;;;5281293;28;19904;-71
2023/06/06 02:14:15;;;;;;;;;;;;;;;;;;5281074;28;19950;-71
2023/06/06 02:16:48;;;;;;;;;;;;;;;;;;5281059;28;19912;-71
2023/06/06 02:19:19;;;;;;;;;;;;;;;;;;5282048;28;19991;-71
2023/06/06 02:21:51;;;;;;;;;;;;;;;;;;5280418;28;19995;-71
2023/06/06 02:24:24;;;;;;;;;;;;;;;;;;5281489;28;19920;-71
2023/06/06 02:26:56;;;;;;;;;;;;;;;;;;5281201;28;19995;-71
2023/06/06 02:29:27;;;;;;;;;;;;;;;;;;5282312;28;19994;-72
2023/06/06 02:31:58;;;;;;;;;;;;;;;;;;5282416;28;20014;-72
2023/06/06 02:34:29;;;;;;;;;;;;;;;;;;5281061;28;19904;-72
2023/06/06 02:37:06;;;;;;;;;;;;;;;;;;5281366;28;20039;-72
2023/06/06 02:39:37;;;;;;;;;;;;;;;;;;5281665;28;20306;-72
2023/06/06 02:42:08;;;;;;;;;;;;;;;;;;5280656;28;19949;-71
2023/06/06 02:44:39;;;;;;;;;;;;;;;;;;5281055;28;20351;-71
2023/06/06 02:47:10;;;;;;;;;;;;;;;;;;5281412;28;20277;-71
2023/06/06 02:49:41;;;;;;;;;;;;;;;;;;5280087;28;19905;-72
2023/06/06 02:52:13;;;;;;;;;;;;;;;;;;5282093;28;19935;-71
2023/06/06 02:54:44;;;;;;;;;;;;;;;;;;5284053;28;19947;-72
2023/06/06 02:57:15;;;;;;;;;;;;;;;;;;5284958;28;19916;-71
2023/06/06 02:59:47;;;;;;;;;;;;;;;;;;5284379;28;19912;-71
2023/06/06 03:02:18;;;;;;;;;;;;;;;;;;5284254;28;20007;-71
2023/06/06 03:04:49;;;;;;;;;;;;;;;;;;5284319;28;19916;-71
2023/06/06 03:07:21;;;;;;;;;;;;;;;;;;5284890;28;19949;-71
2023/06/06 03:09:52;;;;;;;;;;;;;;;;;;5283570;28;19904;-71
2023/06/06 03:12:23;;;;;;;;;;;;;;;;;;5284638;28;19912;-71
2023/06/06 03:14:54;;;;;;;;;;;;;;;;;;5284300;28;19908;-71
2023/06/06 03:17:25;;;;;;;;;;;;;;;;;;5283777;28;20248;-71
2023/06/06 03:19:56;;;;;;;;;;;;;;;;;;5284286;28;19904;-72
2023/06/06 03:22:27;;;;;;;;;;;;;;;;;;5284260;28;19911;-71
2023/06/06 03:24:58;;;;;;;;;;;;;;;;;;5283110;28;19927;-72
2023/06/06 03:27:30;;;;;;;;;;;;;;;;;;5284208;28;19905;-71
2023/06/06 03:30:02;;;;;;;;;;;;;;;;;;5283596;28;19926;-72
2023/06/06 03:32:33;;;;;;;;;;;;;;;;;;5284214;28;20381;-72
2023/06/06 03:35:04;;;;;;;;;;;;;;;;;;5284047;28;19901;-72
2023/06/06 03:37:35;;;;;;;;;;;;;;;;;;5283455;28;20358;-72
2023/06/06 03:40:06;;;;;;;;;;;;;;;;;;5284188;28;19905;-71
2023/06/06 03:42:37;;;;;;;;;;;;;;;;;;5283909;28;19955;-71
2023/06/06 03:45:08;;;;;;;;;;;;;;;;;;5283157;28;19969;-71
2023/06/06 03:47:40;;;;;;;;;;;;;;;;;;5283639;28;19951;-71
2023/06/06 03:50:11;;;;;;;;;;;;;;;;;;5283961;28;19911;-73
2023/06/06 03:52:42;;;;;;;;;;;;;;;;;;5282629;28;19908;-72
2023/06/06 03:55:13;;;;;;;;;;;;;;;;;;5284090;28;20279;-72
2023/06/06 03:57:44;;;;;;;;;;;;;;;;;;5283132;28;19916;-72
2023/06/06 04:00:15;;;;;;;;;;;;;;;;;;5283235;28;19999;-71
2023/06/06 04:02:48;;;;;;;;;;;;;;;;;;5283133;28;19915;-72
2023/06/06 04:05:19;;;;;;;;;;;;;;;;;;5282179;28;19923;-72
2023/06/06 04:07:50;;;;;;;;;;;;;;;;;;5283235;28;19904;-72
2023/06/06 04:10:21;;;;;;;;;;;;;;;;;;5283711;28;19904;-72
2023/06/06 04:12:52;;;;;;;;;;;;;;;;;;5282241;28;19951;-72
2023/06/06 04:15:23;;;;;;;;;;;;;;;;;;5283206;28;19909;-72
2023/06/06 04:17:54;;;;;;;;;;;;;;;;;;5283099;28;19995;-72
2023/06/06 04:20:26;;;;;;;;;;;;;;;;;;5282509;28;19904;-72
2023/06/06 04:23:00;;;;;;;;;;;;;;;;;;5283065;28;19963;-72
2023/06/06 04:25:31;;;;;;;;;;;;;;;;;;5282928;28;19919;-72
2023/06/06 04:28:02;;;;;;;;;;;;;;;;;;5282283;28;19904;-72
2023/06/06 04:30:33;;;;;;;;;;;;;;;;;;5283244;28;19900;-71
2023/06/06 04:33:05;;;;;;;;;;;;;;;;;;5282796;28;19904;-71
2023/06/06 04:35:36;;;;;;;;;;;;;;;;;;5282255;28;20275;-72
2023/06/06 04:38:07;;;;;;;;;;;;;;;;;;5282738;28;19963;-71
2023/06/06 04:40:39;;;;;;;;;;;;;;;;;;5282139;28;19930;-72
2023/06/06 04:43:11;;;;;;;;;;;;;;;;;;5282781;28;19901;-72
2023/06/06 04:45:45;;;;;;;;;;;;;;;;;;5282164;28;19935;-72
2023/06/06 04:48:18;;;;;;;;;;;;;;;;;;5282212;28;20248;-72
2023/06/06 04:50:52;;;;;;;;;;;;;;;;;;5282384;28;19905;-72
2023/06/06 04:53:23;;;;;;;;;;;;;;;;;;5282574;28;20086;-72
2023/06/06 04:55:55;;;;;;;;;;;;;;;;;;5281495;28;20323;-72
2023/06/06 04:58:28;;;;;;;;;;;;;;;;;;5282500;28;20339;-72
2023/06/06 05:00:59;;;;;;;;;;;;;;;;;;5282258;28;19912;-72
2023/06/06 05:03:31;;;;;;;;;;;;;;;;;;5281575;28;19904;-72
2023/06/06 05:06:02;;;;;;;;;;;;;;;;;;5282159;28;20263;-72
2023/06/06 05:08:35;;;;;;;;;;;;;;;;;;5281337;28;20319;-72
2023/06/06 05:11:07;;;;;;;;;;;;;;;;;;5282087;28;19904;-72
2023/06/06 05:13:38;;;;;;;;;;;;;;;;;;5282390;28;20283;-72
2023/06/06 05:16:09;;;;;;;;;;;;;;;;;;5281303;28;19999;-72
2023/06/06 05:18:40;;;;;;;;;;;;;;;;;;5281865;28;19911;-72
2023/06/06 05:21:12;;;;;;;;;;;;;;;;;;5282416;28;19904;-71
2023/06/06 05:23:43;;;;;;;;;;;;;;;;;;5280926;28;19908;-72
2023/06/06 05:26:14;;;;;;;;;;;;;;;;;;5282371;28;20370;-72
2023/06/06 05:28:45;;;;;;;;;;;;;;;;;;5281647;28;19909;-72
2023/06/06 05:31:20;;;;;;;;;;;;;;;;;;5281683;28;19905;-71
2023/06/06 05:33:52;;;;;;;;;;;;;;;;;;5281642;28;19911;-72
2023/06/06 05:36:23;;;;;;;;;;;;;;;;;;5281816;28;20389;-72
2023/06/06 05:38:54;;;;;;;;;;;;;;;;;;5281153;28;19904;-72
2023/06/06 05:41:26;;;;;;;;;;;;;;;;;;5281750;28;19995;-72
2023/06/06 05:43:57;;;;;;;;;;;;;;;;;;5281212;28;20342;-72
2023/06/06 05:46:28;;;;;;;;;;;;;;;;;;5281948;28;20003;-72
2023/06/06 05:48:59;;;;;;;;;;;;;;;;;;5281748;28;19919;-72
2023/06/06 05:51:31;;;;;;;;;;;;;;;;;;5281022;28;19952;-72
2023/06/06 05:54:02;;;;;;;;;;;;;;;;;;5282011;28;19927;-72
2023/06/06 05:56:33;;;;;;;;;;;;;;;;;;5281531;28;19924;-72
2023/06/06 05:59:04;;;;;;;;;;;;;;;;;;5281033;28;19974;-72
2023/06/06 06:01:39;;;;;;;;;;;;;;;;;;5281709;28;19912;-72
2023/06/06 06:04:10;;;;;;;;;;;;;;;;;;5281763;28;19978;-71
2023/06/06 06:06:41;;;;;;;;;;;;;;;;;;5280753;28;19904;-72
2023/06/06 06:09:12;;;;;;;;;;;;;;;;;;5281886;28;19910;-72
2023/06/06 06:11:44;;;;;;;;;;;;;;;;;;5280525;28;19904;-72
2023/06/06 06:14:15;;;;;;;;;;;;;;;;;;5282073;28;19936;-72
2023/06/06 06:16:46;;;;;;;;;;;;;;;;;;5281482;28;20359;-72
2023/06/06 06:19:17;;;;;;;;;;;;;;;;;;5281488;28;19912;-72
2023/06/06 06:21:48;;;;;;;;;;;;;;;;;;5281155;28;20086;-72
2023/06/06 06:24:19;;;;;;;;;;;;;;;;;;5281721;28;20359;-72
2023/06/06 06:26:51;;;;;;;;;;;;;;;;;;5280630;28;19931;-73
2023/06/06 06:29:22;;;;;;;;;;;;;;;;;;5285845;28;19908;-72
2023/06/06 06:31:53;;;;;;;;;;;;;;;;;;5285017;28;19904;-72
2023/06/06 06:34:24;;;;;;;;;;;;;;;;;;5285105;28;19969;-72
2023/06/06 06:36:55;;;;;;;;;;;;;;;;;;5285142;28;19957;-72
2023/06/06 06:39:26;;;;;;;;;;;;;;;;;;5285419;28;19900;-72
2023/06/06 06:41:58;;;;;;;;;;;;;;;;;;5284532;28;20014;-72
2023/06/06 06:44:29;;;;;;;;;;;;;;;;;;5285185;28;19989;-72
2023/06/06 06:47:03;;;;;;;;;;;;;;;;;;5283680;28;20426;-72
2023/06/06 06:49:34;;;;;;;;;;;;;;;;;;5284918;28;19911;-71
2023/06/06 06:52:07;;;;;;;;;;;;;;;;;;5281558;28;20359;-72
2023/06/06 06:54:38;;;;;;;;;;;;;;;;;;5283496;28;19954;-72
2023/06/06 06:57:09;;;;;;;;;;;;;;;;;;5284526;28;20021;-73
2023/06/06 06:59:40;;;;;;;;;;;;;;;;;;5273265;28;19987;-71
2023/06/06 07:02:12;;;;;;;;;;;;;;;;;;5264619;28;19952;-73
2023/06/06 07:04:45;;;;;;;;;;;;;;;;;;5272873;28;20075;-73
2023/06/06 07:07:17;;;;;;;;;;;;;;;;;;5283662;28;19908;-72
2023/06/06 07:09:48;;;;;;;;;;;;;;;;;;5282719;28;19912;-72
2023/06/06 07:12:22;;;;;;;;;;;;;;;;;;5284258;28;19922;-72
2023/06/06 07:14:53;;;;;;;;;;;;;;;;;;5283148;28;19981;-73
2023/06/06 07:17:26;;;;;;;;;;;;;;;;;;5283008;28;19954;-73
2023/06/06 07:19:57;;;;;;;;;;;;;;;;;;5283985;28;19904;-72
2023/06/06 07:22:28;;;;;;;;;;;;;;;;;;5281836;28;20383;-73
2023/06/06 07:24:59;;;;;;;;;;;;;;;;;;5283912;28;19939;-73
2023/06/06 07:27:33;;;;;;;;;;;;;;;;;;5282865;28;20011;-73
2023/06/06 07:30:05;;;;;;;;;;;;;;;;;;5283646;28;20378;-72
2023/06/06 07:32:36;;;;;;;;;;;;;;;;;;5284403;28;19904;-73
2023/06/06 07:35:07;;;;;;;;;;;;;;;;;;5284159;28;20690;-72
2023/06/06 07:37:38;;;;;;;;;;;;;;;;;;5283324;28;19946;-72
2023/06/06 07:40:10;;;;;;;;;;;;;;;;;;5282166;28;19904;-73
2023/06/06 07:42:42;;;;;;;;;;;;;;;;;;5283498;28;19930;-72
2023/06/06 07:45:13;;;;;;;;;;;;;;;;;;5283150;28;19919;-72
2023/06/06 07:47:44;;;;;;;;;;;;;;;;;;5283534;28;20275;-72
2023/06/06 07:50:15;;;;;;;;;;;;;;;;;;5283389;28;19911;-72
2023/06/06 07:52:46;;;;;;;;;;;;;;;;;;5283147;28;19905;-72
2023/06/06 07:55:17;;;;;;;;;;;;;;;;;;5282837;28;20286;-72
2023/06/06 07:57:50;;;;;;;;;;;;;;;;;;5282364;28;19987;-72
2023/06/06 08:00:21;;;;;;;;;;;;;;;;;;5284234;28;20244;-72
2023/06/06 08:02:52;;;;;;;;;;;;;;;;;;5283446;28;19904;-73
2023/06/06 08:05:23;;;;;;;;;;;;;;;;;;5282911;28;19912;-72
2023/06/06 08:07:55;;;;;;;;;;;;;;;;;;5283632;28;20233;-72
2023/06/06 08:10:26;;;;;;;;;;;;;;;;;;5283556;28;19904;-72
2023/06/06 08:12:57;;;;;;;;;;;;;;;;;;5282814;28;19912;-72
2023/06/06 08:15:28;;;;;;;;;;;;;;;;;;5283633;28;19936;-72
2023/06/06 08:17:59;;;;;;;;;;;;;;;;;;5283289;28;19912;-72
2023/06/06 08:20:30;;;;;;;;;;;;;;;;;;5282613;28;20370;-72
2023/06/06 08:23:02;;;;;;;;;;;;;;;;;;5283158;28;19930;-72
2023/06/06 08:25:33;;;;;;;;;;;;;;;;;;5282567;28;20206;-72
2023/06/06 08:28:04;;;;;;;;;;;;;;;;;;5281169;28;20000;-72
2023/06/06 08:30:35;;;;;;;;;;;;;;;;;;5282463;28;19908;-72
2023/06/06 08:33:06;;;;;;;;;;;;;;;;;;5281967;28;19973;-72
2023/06/06 08:35:37;;;;;;;;;;;;;;;;;;5278284;28;19908;-71
2023/06/06 08:38:08;;;;;;;;;;;;;;;;;;5264895;28;20015;-71
2023/06/06 08:40:39;;;;;;;;;;;;;;;;;;5261019;28;19904;-72
2023/06/06 08:43:12;;;;;;;;;;;;;;;;;;5262284;28;19987;-72
2023/06/06 08:45:43;;;;;;;;;;;;;;;;;;5260851;28;19917;-71
2023/06/06 08:48:14;;;;;;;;;;;;;;;;;;5260201;28;20351;-72
2023/06/06 08:50:45;;;;;;;;;;;;;;;;;;5260804;28;19904;-70
2023/06/06 08:53:17;;;;;;;;;;;;;;;;;;5261927;28;20030;-73
2023/06/06 08:55:48;;;;;;;;;;;;;;;;;;5260483;28;20007;-72
2023/06/06 08:58:19;;;;;;;;;;;;;;;;;;5261756;28;19907;-72
2023/06/06 09:00:51;;;;;;;;;;;;;;;;;;5260600;28;20355;-72
2023/06/06 09:03:22;;;;;;;;;;;;;;;;;;5262059;28;19991;-72
2023/06/06 09:05:53;;;;;;;;;;;;;;;;;;5260904;28;20007;-73
2023/06/06 09:08:25;;;;;;;;;;;;;;;;;;5260900;28;19995;-73
2023/06/06 09:10:56;;;;;;;;;;;;;;;;;;5261204;28;19912;-73
2023/06/06 09:13:27;;;;;;;;;;;;;;;;;;5280209;28;20003;-73
2023/06/06 09:15:59;;;;;;;;;;;;;;;;;;5281485;28;19949;-73
2023/06/06 09:18:30;;;;;;;;;;;;;;;;;;5282252;28;19904;-73
2023/06/06 09:21:01;;;;;;;;;;;;;;;;;;5282203;28;19974;-72
2023/06/06 09:23:32;;;;;;;;;;;;;;;;;;5281154;28;19909;-73
2023/06/06 09:26:03;;;;;;;;;;;;;;;;;;5282130;28;19912;-72
2023/06/06 09:28:34;;;;;;;;;;;;;;;;;;5281116;28;19904;-73
2023/06/06 09:31:05;;;;;;;;;;;;;;;;;;5282433;28;19905;-73
2023/06/06 09:33:36;;;;;;;;;;;;;;;;;;5281840;28;19987;-73
2023/06/06 09:36:08;;;;;;;;;;;;;;;;;;5281062;28;20360;-73
2023/06/06 09:38:39;;;;;;;;;;;;;;;;;;5281882;28;20349;-73
2023/06/06 09:41:10;;;;;;;;;;;;;;;;;;5282267;28;19904;-73
2023/06/06 09:43:41;;;;;;;;;;;;;;;;;;5280824;28;19993;-73
2023/06/06 09:46:12;;;;;;;;;;;;;;;;;;5281320;28;19919;-72
2023/06/06 09:48:44;;;;;;;;;;;;;;;;;;5276487;28;19908;-72
2023/06/06 09:51:15;;;;;;;;;;;;;;;;;;5277685;28;20343;-72
2023/06/06 09:53:50;;;;;;;;;;;;;;;;;;5279658;28;19905;-72
2023/06/06 09:56:22;;;;;;;;;;;;;;;;;;5279817;28;19917;-72
2023/06/06 09:58:54;;;;;;;;;;;;;;;;;;5278548;28;20027;-72
2023/06/06 10:01:25;;;;;;;;;;;;;;;;;;5280704;28;19995;-72
2023/06/06 10:03:56;;;;;;;;;;;;;;;;;;5284333;28;19911;-72
2023/06/06 10:06:33;;;;;;;;;;;;;;;;;;5285965;28;19912;-70
2023/06/06 10:09:07;;;;;;;;;;;;;;;;;;5286118;28;19979;-72
2023/06/06 10:11:38;;;;;;;;;;;;;;;;;;5285087;28;19909;-72
2023/06/06 10:14:10;;;;;;;;;;;;;;;;;;5285915;28;19904;-72
2023/06/06 10:16:41;;;;;;;;;;;;;;;;;;5285318;28;19904;-70
2023/06/06 10:19:12;;;;;;;;;;;;;;;;;;5285256;28;20378;-70
2023/06/06 10:21:43;;;;;;;;;;;;;;;;;;5285428;28;19912;-73
2023/06/06 10:24:15;;;;;;;;;;;;;;;;;;5285718;28;19908;-72
2023/06/06 10:26:46;;;;;;;;;;;;;;;;;;5284810;28;19954;-71
2023/06/06 10:29:17;;;;;;;;;;;;;;;;;;5285799;28;19947;-72
2023/06/06 10:31:49;;;;;;;;;;;;;;;;;;5284758;28;19931;-72
2023/06/06 10:34:20;;;;;;;;;;;;;;;;;;5285071;28;20244;-71
2023/06/06 10:36:51;;;;;;;;;;;;;;;;;;5285224;28;19905;-71
2023/06/06 10:39:22;;;;;;;;;;;;;;;;;;5284953;28;20355;-72
2023/06/06 10:41:53;;;;;;;;;;;;;;;;;;5285080;28;19927;-72
2023/06/06 10:44:24;;;;;;;;;;;;;;;;;;5284840;28;19912;-72
2023/06/06 10:46:55;;;;;;;;;;;;;;;;;;5284179;28;19908;-71
2023/06/06 10:49:26;;;;;;;;;;;;;;;;;;5285270;28;19927;-71
2023/06/06 10:51:57;;;;;;;;;;;;;;;;;;5285186;28;19944;-72
2023/06/06 10:54:28;;;;;;;;;;;;;;;;;;5284114;28;19922;-72
2023/06/06 10:57:00;;;;;;;;;;;;;;;;;;5283604;28;19921;-72
2023/06/06 10:59:31;;;;;;;;;;;;;;;;;;5281362;28;19905;-72
2023/06/06 11:02:02;;;;;;;;;;;;;;;;;;5282668;28;20402;-71
2023/06/06 11:04:34;;;;;;;;;;;;;;;;;;5280543;28;20309;-70
2023/06/06 11:07:06;;;;;;;;;;;;;;;;;;5282229;28;19972;-72
2023/06/06 11:09:38;;;;;;;;;;;;;;;;;;5282684;28;19904;-70
2023/06/06 11:12:09;;;;;;;;;;;;;;;;;;5283335;28;19908;-72
2023/06/06 11:14:40;;;;;;;;;;;;;;;;;;5281496;28;19911;-71
2023/06/06 11:17:11;;;;;;;;;;;;;;;;;;5283304;28;19957;-71
2023/06/06 11:19:43;;;;;;;;;;;;;;;;;;5282936;28;19904;-72
2023/06/06 11:22:14;;;;;;;;;;;;;;;;;;5283087;28;20262;-72
2023/06/06 11:24:45;;;;;;;;;;;;;;;;;;5283087;28;20339;-72
2023/06/06 11:27:16;;;;;;;;;;;;;;;;;;5283721;28;19905;-71
2023/06/06 11:29:47;;;;;;;;;;;;;;;;;;5282149;28;19904;-71
2023/06/06 11:32:18;;;;;;;;;;;;;;;;;;5283799;28;20265;-71
2023/06/06 11:34:50;;;;;;;;;;;;;;;;;;5282946;28;19944;-71
2023/06/06 11:37:21;;;;;;;;;;;;;;;;;;5282617;28;19949;-73
2023/06/06 11:39:52;;;;;;;;;;;;;;;;;;5283180;28;20223;-71
2023/06/06 11:42:23;;;;;;;;;;;;;;;;;;5282300;28;19905;-72
2023/06/06 11:44:54;;;;;;;;;;;;;;;;;;5282972;28;19912;-72
2023/06/06 11:47:25;;;;;;;;;;;;;;;;;;5283263;28;19911;-72
2023/06/06 11:49:57;;;;;;;;;;;;;;;;;;5282391;28;19904;-72
2023/06/06 11:52:28;;;;;;;;;;;;;;;;;;5282784;28;20347;-71
2023/06/06 11:55:04;;;;;;;;;;;;;;;;;;5283042;28;19913;-71
2023/06/06 11:57:35;;;;;;;;;;;;;;;;;;5246540;28;1041229;-72
2023/06/06 12:00:18;;;;;;;;;;;;;;;;;;5283881;28;19904;-72
2023/06/06 12:02:49;;;;;;;;;;;;;;;;;;5283285;28;20010;-71
2023/06/06 12:05:20;;;;;;;;;;;;;;;;;;5283191;28;20037;-72
2023/06/06 12:07:54;;;;;;;;;;;;;;;;;;5283236;28;19911;-71
2023/06/06 12:10:25;;;;;;;;;;;;;;;;;;5282857;28;19930;-71
2023/06/06 12:12:57;;;;;;;;;;;;;;;;;;5283716;28;19904;-70
2023/06/06 12:15:28;;;;;;;;;;;;;;;;;;5283687;28;20353;-71
2023/06/06 12:17:59;;;;;;;;;;;;;;;;;;5282264;28;19908;-71
2023/06/06 12:20:30;;;;;;;;;;;;;;;;;;5283491;28;20358;-71
2023/06/06 12:23:01;;;;;;;;;;;;;;;;;;5283395;28;19904;-71
2023/06/06 12:25:32;;;;;;;;;;;;;;;;;;5281752;28;19918;-71
2023/06/06 12:28:04;;;;;;;;;;;;;;;;;;5283259;28;19905;-71
2023/06/06 12:30:36;;;;;;;;;;;;;;;;;;5283155;28;20282;-71
2023/06/06 12:33:08;;;;;;;;;;;;;;;;;;5282220;28;19904;-71
2023/06/06 12:35:39;;;;;;;;;;;;;;;;;;5282905;28;20023;-71
2023/06/06 12:38:10;;;;;;;;;;;;;;;;;;5283103;28;19999;-71
2023/06/06 12:40:41;;;;;;;;;;;;;;;;;;5281947;28;19914;-71
2023/06/06 12:43:13;;;;;;;;;;;;;;;;;;5283075;28;19904;-71
2023/06/06 12:45:44;;;;;;;;;;;;;;;;;;5281545;28;19979;-71
2023/06/06 12:48:16;;;;;;;;;;;;;;;;;;5279931;28;19922;-70
2023/06/06 12:50:47;;;;;;;;;;;;;;;;;;5278642;28;19912;-71
2023/06/06 12:53:21;;;;;;;;;;;;;;;;;;5281921;28;19904;-71
2023/06/06 12:55:52;;;;;;;;;;;;;;;;;;5281548;28;19961;-71
2023/06/06 12:58:25;;;;;;;;;;;;;;;;;;5282903;28;19932;-71
2023/06/06 13:00:56;;;;;;;;;;;;;;;;;;5281887;28;19951;-71
2023/06/06 13:03:28;;;;;;;;;;;;;;;;;;5281389;28;19904;-72
2023/06/06 13:05:59;;;;;;;;;;;;;;;;;;5282059;28;19920;-72
2023/06/06 13:08:30;;;;;;;;;;;;;;;;;;5281537;28;20403;-71
2023/06/06 13:11:01;;;;;;;;;;;;;;;;;;5282498;28;19911;-71
2023/06/06 13:13:32;;;;;;;;;;;;;;;;;;5282584;28;19904;-71
2023/06/06 13:16:03;;;;;;;;;;;;;;;;;;5281389;28;20313;-71
2023/06/06 13:18:35;;;;;;;;;;;;;;;;;;5278777;28;19909;-71
2023/06/06 13:21:06;;;;;;;;;;;;;;;;;;5281144;28;19930;-70
2023/06/06 13:23:37;;;;;;;;;;;;;;;;;;5282357;28;19905;-72
2023/06/06 13:26:08;;;;;;;;;;;;;;;;;;5282026;28;19916;-71
2023/06/06 13:28:39;;;;;;;;;;;;;;;;;;5280976;28;19912;-71
2023/06/06 13:31:11;;;;;;;;;;;;;;;;;;5281915;28;19950;-71
2023/06/06 13:33:42;;;;;;;;;;;;;;;;;;5281242;28;19904;-72
2023/06/06 13:36:13;;;;;;;;;;;;;;;;;;5281325;28;19936;-72
2023/06/06 13:38:45;;;;;;;;;;;;;;;;;;5281521;28;19905;-71
2023/06/06 13:41:16;;;;;;;;;;;;;;;;;;5282428;28;19911;-72
2023/06/06 13:43:47;;;;;;;;;;;;;;;;;;5280751;28;19927;-73
2023/06/06 13:46:18;;;;;;;;;;;;;;;;;;5282349;28;19916;-73
2023/06/06 13:48:50;;;;;;;;;;;;;;;;;;5280546;28;19908;-72
2023/06/06 13:51:21;;;;;;;;;;;;;;;;;;5281266;28;19912;-72
2023/06/06 13:53:52;;;;;;;;;;;;;;;;;;5280124;28;19904;-72
2023/06/06 13:56:25;;;;;;;;;;;;;;;;;;5279837;28;19920;-72
2023/06/06 13:58:56;;;;;;;;;;;;;;;;;;5281140;28;19904;-72
2023/06/06 14:01:28;;;;;;;;;;;;;;;;;;5281783;28;19916;-72
2023/06/06 14:04:00;;;;;;;;;;;;;;;;;;5281298;28;19912;-73
2023/06/06 14:06:33;;;;;;;;;;;;;;;;;;5279808;28;19919;-73
2023/06/06 14:09:07;;;;;;;;;;;;;;;;;;5279619;28;19905;-72
2023/06/06 14:11:38;;;;;;;;;;;;;;;;;;5280645;28;19905;-72
2023/06/06 14:14:09;;;;;;;;;;;;;;;;;;5280967;28;19930;-72
2023/06/06 14:16:41;;;;;;;;;;;;;;;;;;5279342;28;20282;-72
2023/06/06 14:19:24;;;;;;;;;;;;;;;;;;5278856;28;19999;-72
2023/06/06 14:22:19;;;;;;;;;;;;;;;;;;5279412;28;19949;-72
2023/06/06 14:24:49;;;;;;;;;;;;;;;;;;5278014;28;19963;-72
2023/06/06 14:27:20;;;;;;;;;;;;;;;;;;5279856;28;20412;-72
2023/06/06 14:29:51;;;;;;;;;;;;;;;;;;5279882;28;19908;-72
2023/06/06 14:32:23;;;;;;;;;;;;;;;;;;5280997;28;19904;-72
2023/06/06 14:34:55;;;;;;;;;;;;;;;;;;5281286;28;19904;-72
2023/06/06 14:37:27;;;;;;;;;;;;;;;;;;5281129;28;20359;-72
2023/06/06 14:39:58;;;;;;;;;;;;;;;;;;5280337;28;20351;-72
2023/06/06 14:42:29;;;;;;;;;;;;;;;;;;5281725;28;19951;-72
2023/06/06 14:45:00;;;;;;;;;;;;;;;;;;5280920;28;19927;-73
2023/06/06 14:47:31;;;;;;;;;;;;;;;;;;5280883;28;20008;-73
2023/06/06 14:50:02;;;;;;;;;;;;;;;;;;5284574;28;19904;-72
2023/06/06 14:52:33;;;;;;;;;;;;;;;;;;5284442;28;19958;-73
2023/06/06 14:55:05;;;;;;;;;;;;;;;;;;5284792;28;20378;-72
2023/06/06 14:57:36;;;;;;;;;;;;;;;;;;5284828;28;20366;-72
2023/06/06 15:00:08;;;;;;;;;;;;;;;;;;5284294;28;19904;-72
2023/06/06 15:02:39;;;;;;;;;;;;;;;;;;5284893;28;20003;-74
2023/06/06 15:05:10;;;;;;;;;;;;;;;;;;5284685;28;20363;-71
2023/06/06 15:07:42;;;;;;;;;;;;;;;;;;5283556;28;19923;-72
2023/06/06 15:10:13;;;;;;;;;;;;;;;;;;5285103;28;20367;-71
2023/06/06 15:12:44;;;;;;;;;;;;;;;;;;5284746;28;19904;-73
2023/06/06 15:15:15;;;;;;;;;;;;;;;;;;5284380;28;19919;-72
2023/06/06 15:17:46;;;;;;;;;;;;;;;;;;5279586;28;20262;-72
2023/06/06 15:20:18;;;;;;;;;;;;;;;;;;5284453;28;19911;-72
2023/06/06 15:22:49;;;;;;;;;;;;;;;;;;5284019;28;19908;-72
2023/06/06 15:25:21;;;;;;;;;;;;;;;;;;5284720;28;19912;-72
2023/06/06 15:27:52;;;;;;;;;;;;;;;;;;5283224;28;20022;-72
2023/06/06 15:30:23;;;;;;;;;;;;;;;;;;5284204;28;19912;-73
2023/06/06 15:32:54;;;;;;;;;;;;;;;;;;5282778;28;19912;-72
2023/06/06 15:35:25;;;;;;;;;;;;;;;;;;5283602;28;20007;-72
2023/06/06 15:37:56;;;;;;;;;;;;;;;;;;5284385;28;19905;-73
2023/06/06 15:40:28;;;;;;;;;;;;;;;;;;5284322;28;20373;-72
2023/06/06 15:42:59;;;;;;;;;;;;;;;;;;5283843;28;20038;-73
2023/06/06 15:45:30;;;;;;;;;;;;;;;;;;5284335;28;19912;-73
2023/06/06 15:48:02;;;;;;;;;;;;;;;;;;5284000;28;19904;-73
2023/06/06 15:50:33;;;;;;;;;;;;;;;;;;5283289;28;19912;-73
2023/06/06 15:53:04;;;;;;;;;;;;;;;;;;5283672;28;19905;-73
2023/06/06 15:55:35;;;;;;;;;;;;;;;;;;5283299;28;19905;-74
2023/06/06 15:58:06;;;;;;;;;;;;;;;;;;5284191;28;19970;-73
2023/06/06 16:00:37;;;;;;;;;;;;;;;;;;5282781;28;19904;-73
2023/06/06 16:03:09;;;;;;;;;;;;;;;;;;5283089;28;19908;-73
2023/06/06 16:05:40;;;;;;;;;;;;;;;;;;5283317;28;19969;-74
2023/06/06 16:08:11;;;;;;;;;;;;;;;;;;5283863;28;19908;-73
2023/06/06 16:10:42;;;;;;;;;;;;;;;;;;5282717;28;20426;-73
2023/06/06 16:13:13;;;;;;;;;;;;;;;;;;5284012;28;19904;-73
2023/06/06 16:15:44;;;;;;;;;;;;;;;;;;5283320;28;20295;-73
2023/06/06 16:18:16;;;;;;;;;;;;;;;;;;5283220;28;19905;-73
2023/06/06 16:20:47;;;;;;;;;;;;;;;;;;5283321;28;20347;-72
2023/06/06 16:23:18;;;;;;;;;;;;;;;;;;5283564;28;19904;-72
2023/06/06 16:25:50;;;;;;;;;;;;;;;;;;5282257;28;19917;-72
2023/06/06 16:28:21;;;;;;;;;;;;;;;;;;5283655;28;19912;-72
2023/06/06 16:30:52;;;;;;;;;;;;;;;;;;5282456;28;20043;-73
2023/06/06 16:33:23;;;;;;;;;;;;;;;;;;5283392;28;19904;-72
2023/06/06 16:35:54;;;;;;;;;;;;;;;;;;5283302;28;20018;-72
2023/06/06 16:38:25;;;;;;;;;;;;;;;;;;5282384;28;19948;-72
2023/06/06 16:41:01;;;;;;;;;;;;;;;;;;5283026;28;19911;-72
2023/06/06 16:43:32;;;;;;;;;;;;;;;;;;5283180;28;19904;-72
2023/06/06 16:46:04;;;;;;;;;;;;;;;;;;5281793;28;19953;-72
2023/06/06 16:48:35;;;;;;;;;;;;;;;;;;5282982;28;19904;-72
2023/06/06 16:51:06;;;;;;;;;;;;;;;;;;5282911;28;19905;-72
2023/06/06 16:53:37;;;;;;;;;;;;;;;;;;5282079;28;19904;-72
2023/06/06 16:56:08;;;;;;;;;;;;;;;;;;5282480;28;19960;-71
2023/06/06 16:58:39;;;;;;;;;;;;;;;;;;5282041;28;20007;-72
2023/06/06 17:01:11;;;;;;;;;;;;;;;;;;5282917;28;19911;-72
2023/06/06 17:03:42;;;;;;;;;;;;;;;;;;5282292;28;19919;-72
2023/06/06 17:06:14;;;;;;;;;;;;;;;;;;5282422;28;20277;-72
2023/06/06 17:08:45;;;;;;;;;;;;;;;;;;5282303;28;19908;-72
2023/06/06 17:11:16;;;;;;;;;;;;;;;;;;5282013;28;20452;-72
2023/06/06 17:13:47;;;;;;;;;;;;;;;;;;5281465;28;19904;-72